Aviation Digital Data Service (ADDS)

Output produced by METARs form (1406 UTC 19 November 2017)
found at http://aviationweather.gov/adds/metars/
 
KGGG 191121Z 1912/2012 33003KT P6SM SKC 
     FM191500 36008KT P6SM SKC 
     FM200000 00000KT P6SM SKC